Terminal Aerodrome Forecast
Issued by NWS Chicago, IL

Home | Current Version | Previous Version | Graphics & Text | Print | Product List | Glossary On
Versions: 1 2 3 4 5 6 7 8 9 10 11 12 13 14 15 16 17 18 19 20 21 22 23 24 25 26 27 28 29 30
000
FTUS43 KLOT 230256 AAA
TAFRFD
TAF AMD
KRFD 230256Z 2303/2324 22013KT P6SM SCT050 OVC250
     FM230600 20009KT P6SM VCSH BKN025 OVC035
     FM230800 20006KT P6SM BKN025 OVC035
     FM231500 20010KT P6SM -SHRA BKN020 OVC040
     FM231800 20005KT 5SM SHRA VCTS BKN025CB OVC040=

USA.gov is the U.S. government's official web portal to all federal, state and local government web resources and services.